Time;durP1;ratioP1;P1;durP2;ratioP2;P2;SDS_P1;SDS_P2;PMS_P1;PMS_P2;Temp;Humidity;BMP_temperature;BMP_pressure;BME280_temperature;BME280_humidity;BME280_pressure;Samples;Min_cycle;Max_cycle;Signal;HPM_P1;HPM_P2
2021/12/23 00:01:20;;;;;;;20.53;13.60;;;2.20;99.90;;;;;;4974385;28;20204;-79
2021/12/23 00:03:46;;;;;;;18.87;14.00;;;2.10;99.90;;;;;;4973537;28;20164;-79
2021/12/23 00:06:30;;;;;;;14.77;11.17;;;2.10;99.90;;;;;;4975968;28;20598;-79
2021/12/23 00:09:00;;;;;;;17.83;13.70;;;2.20;99.90;;;;;;4973706;28;20575;-79
2021/12/23 00:11:27;;;;;;;18.98;14.50;;;2.20;99.90;;;;;;4957310;28;20238;-79
2021/12/23 00:14:02;;;;;;;15.13;13.30;;;2.10;99.90;;;;;;4974049;28;20168;-79
2021/12/23 00:19:18;;;;;;;18.23;12.77;;;2.10;99.90;;;;;;4974357;28;20632;-79
2021/12/23 00:24:28;;;;;;;16.10;12.93;;;2.10;99.90;;;;;;4974078;28;20175;-79
2021/12/23 00:26:54;;;;;;;16.70;14.05;;;2.10;99.90;;;;;;4988804;28;20250;-79
2021/12/23 00:29:20;;;;;;;19.03;14.10;;;2.10;99.90;;;;;;4973989;28;20172;-79
2021/12/23 00:31:46;;;;;;;16.90;11.90;;;2.10;99.90;;;;;;4974320;28;20230;-79
2021/12/23 00:34:12;;;;;;;17.37;14.30;;;2.10;99.90;;;;;;4988766;28;20670;-79
2021/12/23 00:36:40;;;;;;;17.73;13.95;;;2.00;99.90;;;;;;4973680;28;20184;-79
2021/12/23 00:39:07;;;;;;;17.50;14.27;;;2.00;99.90;;;;;;4974328;28;20206;-79
2021/12/23 00:41:33;;;;;;;17.40;11.57;;;2.10;99.90;;;;;;4974321;28;20184;-79
2021/12/23 00:43:59;;;;;;;17.47;13.60;;;2.10;99.90;;;;;;4974659;28;20176;-79
2021/12/23 00:46:25;;;;;;;17.43;14.03;;;2.10;99.90;;;;;;4978991;28;20516;-79
2021/12/23 00:48:51;;;;;;;22.13;17.90;;;2.10;99.90;;;;;;4973373;28;20578;-79
2021/12/23 00:51:18;;;;;;;20.43;15.40;;;2.00;99.90;;;;;;4974113;28;20606;-79
2021/12/23 00:53:45;;;;;;;17.88;14.75;;;2.00;99.90;;;;;;4956690;28;20933;-79
2021/12/23 00:56:11;;;;;;;18.50;13.55;;;2.00;99.90;;;;;;4973658;28;20178;-79
2021/12/23 00:58:38;;;;;;;21.63;15.98;;;2.10;99.90;;;;;;4956451;28;20172;-79
2021/12/23 01:01:04;;;;;;;18.05;15.05;;;2.10;99.90;;;;;;4988660;28;20750;-79
2021/12/23 01:03:30;;;;;;;19.38;14.20;;;2.10;99.90;;;;;;4973407;28;20246;-79
2021/12/23 01:05:57;;;;;;;22.65;16.00;;;2.10;99.90;;;;;;4973532;28;20178;-79
2021/12/23 01:08:23;;;;;;;16.25;13.90;;;2.10;99.90;;;;;;4973003;28;20171;-78
2021/12/23 01:10:53;;;;;;;18.40;14.23;;;2.10;99.90;;;;;;4973742;28;20831;-78
2021/12/23 01:13:20;;;;;;;18.95;15.00;;;2.10;99.90;;;;;;4971762;28;20251;-78
2021/12/23 01:15:58;;;;;;;20.05;14.25;;;2.10;99.90;;;;;;4973079;28;20180;-78
2021/12/23 01:18:29;;;;;;;20.90;16.17;;;2.10;99.90;;;;;;4972362;28;20555;-79
2021/12/23 01:21:03;;;;;;;19.50;15.15;;;2.00;99.90;;;;;;4972751;28;20207;-79
2021/12/23 01:23:34;;;;;;;21.23;14.55;;;2.00;99.90;;;;;;4973249;28;20171;-78
2021/12/23 01:26:00;;;;;;;20.77;15.63;;;2.00;99.90;;;;;;4971354;28;20524;-78
2021/12/23 01:28:26;;;;;;;18.38;13.73;;;2.00;99.90;;;;;;4973382;28;20171;-78
2021/12/23 01:30:52;;;;;;;22.10;15.73;;;2.00;99.90;;;;;;4987710;28;20203;-78
2021/12/23 01:33:18;;;;;;;18.97;14.57;;;1.90;99.90;;;;;;4973682;28;20176;-78
2021/12/23 01:35:49;;;;;;;19.20;15.10;;;2.00;99.90;;;;;;4971466;28;20583;-78
2021/12/23 01:38:16;;;;;;;16.85;14.73;;;2.00;99.90;;;;;;4972126;28;20246;-78
2021/12/23 01:40:44;;;;;;;16.55;12.60;;;1.90;99.90;;;;;;4972971;28;20199;-78
2021/12/23 01:43:10;;;;;;;17.95;14.70;;;1.90;99.90;;;;;;4955611;28;20180;-78
2021/12/23 01:45:46;;;;;;;16.10;13.70;;;2.00;99.90;;;;;;4972787;28;20513;-79
2021/12/23 01:48:13;;;;;;;17.67;14.70;;;1.90;99.90;;;;;;4972974;28;20579;-80
2021/12/23 01:50:39;;;;;;;16.80;13.82;;;1.90;99.90;;;;;;4987921;28;20285;-80
2021/12/23 01:53:06;;;;;;;24.00;14.60;;;1.90;99.90;;;;;;4972514;28;20658;-77
2021/12/23 01:55:32;;;;;;;20.90;16.30;;;1.90;99.90;;;;;;4972207;28;20202;-78
2021/12/23 01:57:58;;;;;;;18.87;15.20;;;1.90;99.90;;;;;;4972005;28;20200;-78
2021/12/23 02:00:27;;;;;;;19.77;13.27;;;1.90;99.90;;;;;;4987410;28;21034;-79
2021/12/23 02:02:54;;;;;;;16.45;12.52;;;1.90;99.90;;;;;;4955240;28;20259;-78
2021/12/23 02:05:20;;;;;;;15.77;12.75;;;1.90;99.90;;;;;;4954767;28;20262;-78
2021/12/23 02:07:46;;;;;;;17.20;13.43;;;1.90;99.90;;;;;;4955700;28;20159;-78
2021/12/23 02:10:12;;;;;;;17.90;12.10;;;1.90;99.90;;;;;;4972344;28;20235;-78
2021/12/23 02:12:42;;;;;;;16.17;13.23;;;1.90;99.90;;;;;;4972383;28;20175;-78
2021/12/23 02:15:08;;;;;;;18.17;14.38;;;1.90;99.90;;;;;;4972345;28;20630;-78
2021/12/23 02:17:36;;;;;;;15.98;12.52;;;1.90;99.90;;;;;;4955010;28;20172;-78
2021/12/23 02:20:04;;;;;;;25.75;16.88;;;1.90;99.90;;;;;;4971136;28;20199;-78
2021/12/23 02:22:29;;;;;;;21.83;14.40;;;1.90;99.90;;;;;;4972155;28;20172;-78
2021/12/23 02:24:55;;;;;;;17.37;13.87;;;1.90;99.90;;;;;;4972460;28;20266;-78
2021/12/23 02:27:21;;;;;;;19.03;13.83;;;1.90;99.90;;;;;;4971952;28;20178;-78
2021/12/23 02:29:47;;;;;;;15.07;13.30;;;1.90;99.90;;;;;;4955288;28;20198;-78
2021/12/23 02:32:12;;;;;;;16.87;13.37;;;1.90;99.90;;;;;;4972653;28;20183;-78
2021/12/23 02:34:38;;;;;;;18.17;12.57;;;2.00;99.90;;;;;;4972323;28;20586;-78
2021/12/23 02:37:04;;;;;;;19.87;15.47;;;2.00;99.90;;;;;;4972098;28;20524;-78
2021/12/23 02:39:30;;;;;;;16.20;13.30;;;2.00;99.90;;;;;;4971909;28;20203;-78
2021/12/23 02:41:56;;;;;;;16.27;12.60;;;2.00;99.90;;;;;;4971377;28;20621;-78
2021/12/23 02:44:22;;;;;;;16.63;13.52;;;2.00;99.90;;;;;;4972124;28;21115;-78
2021/12/23 02:46:48;;;;;;;23.90;16.27;;;2.00;99.90;;;;;;4970715;28;20175;-78
2021/12/23 02:49:15;;;;;;;19.40;15.23;;;2.10;99.90;;;;;;4972553;28;20594;-78
2021/12/23 02:51:42;;;;;;;15.55;13.32;;;2.10;99.90;;;;;;4954857;28;20202;-78
2021/12/23 02:54:08;;;;;;;16.45;13.50;;;2.20;99.90;;;;;;4972229;28;20164;-78
2021/12/23 02:56:34;;;;;;;23.43;16.40;;;2.20;99.90;;;;;;4986534;28;20172;-78
2021/12/23 02:59:00;;;;;;;16.73;14.87;;;2.30;99.90;;;;;;4939114;28;20203;-78
2021/12/23 03:01:27;;;;;;;18.75;15.30;;;2.20;99.90;;;;;;4972152;28;20637;-78
2021/12/23 03:03:53;;;;;;;21.52;15.70;;;2.20;99.90;;;;;;4972116;28;20160;-78
2021/12/23 03:06:20;;;;;;;22.60;16.50;;;2.20;99.90;;;;;;4970942;28;20227;-78
2021/12/23 03:08:52;;;;;;;19.77;16.00;;;2.10;99.90;;;;;;4955966;28;21019;-77
2021/12/23 03:11:20;;;;;;;20.38;15.50;;;2.20;99.90;;;;;;4988814;28;20202;-78
2021/12/23 03:13:47;;;;;;;20.98;14.68;;;2.10;99.90;;;;;;4975086;28;20171;-77
2021/12/23 03:16:14;;;;;;;20.67;15.45;;;2.10;99.90;;;;;;4976926;28;20176;-77
2021/12/23 03:18:41;;;;;;;17.58;14.02;;;2.20;99.90;;;;;;4974980;28;20218;-77
2021/12/23 03:21:07;;;;;;;17.23;14.50;;;2.20;99.90;;;;;;4976607;28;20206;-78
2021/12/23 03:23:33;;;;;;;16.35;13.13;;;2.20;99.90;;;;;;4976504;28;20184;-77
2021/12/23 03:25:59;;;;;;;19.00;15.35;;;2.30;99.90;;;;;;4975391;28;20640;-72
2021/12/23 03:28:25;;;;;;;21.95;17.45;;;2.30;99.90;;;;;;4972516;28;20183;-72
2021/12/23 03:30:51;;;;;;;18.63;15.00;;;2.30;99.90;;;;;;4972488;28;20192;-72
2021/12/23 03:33:17;;;;;;;19.10;15.50;;;2.30;99.90;;;;;;4975515;28;21142;-72
2021/12/23 03:35:43;;;;;;;20.90;17.15;;;2.20;99.90;;;;;;4958104;28;20528;-72
2021/12/23 03:38:10;;;;;;;21.27;17.42;;;2.20;99.90;;;;;;4974624;28;20183;-72
2021/12/23 03:40:36;;;;;;;20.80;16.08;;;2.20;99.90;;;;;;4975320;28;20212;-72
2021/12/23 03:43:02;;;;;;;18.08;14.07;;;2.30;99.90;;;;;;4975494;28;20251;-72
2021/12/23 03:45:28;;;;;;;23.73;16.58;;;2.30;99.90;;;;;;4974297;28;20176;-72
2021/12/23 03:47:53;;;;;;;24.47;17.93;;;2.20;99.90;;;;;;4975166;28;20174;-71
2021/12/23 03:50:21;;;;;;;21.67;17.03;;;2.20;99.90;;;;;;4975371;28;20187;-72
2021/12/23 03:52:49;;;;;;;20.80;17.90;;;2.10;99.90;;;;;;4973948;28;20227;-72
2021/12/23 03:55:16;;;;;;;20.70;16.80;;;2.20;99.90;;;;;;4974159;28;20175;-72
2021/12/23 03:57:43;;;;;;;20.33;16.20;;;2.20;99.90;;;;;;4973793;28;20210;-72
2021/12/23 04:00:11;;;;;;;21.80;16.60;;;2.20;99.90;;;;;;4973822;28;20246;-72
2021/12/23 04:02:37;;;;;;;23.60;15.77;;;2.10;99.90;;;;;;4975413;28;20176;-72
2021/12/23 04:05:06;;;;;;;23.70;18.17;;;2.10;99.90;;;;;;4973984;28;20168;-72
2021/12/23 04:07:33;;;;;;;21.73;15.88;;;2.10;99.90;;;;;;4975427;28;20168;-72
2021/12/23 04:09:59;;;;;;;18.50;14.77;;;2.10;99.90;;;;;;4974990;28;20180;-72
2021/12/23 04:12:25;;;;;;;20.58;14.95;;;2.20;99.90;;;;;;4975162;28;20164;-72
2021/12/23 04:14:50;;;;;;;19.83;15.07;;;2.20;99.90;;;;;;4974955;28;20190;-72
2021/12/23 04:17:16;;;;;;;18.77;13.93;;;2.20;99.90;;;;;;4973949;28;20682;-72
2021/12/23 04:19:45;;;;;;;22.75;17.55;;;2.20;99.90;;;;;;4973869;28;20215;-72
2021/12/23 04:22:12;;;;;;;22.55;17.17;;;2.30;99.90;;;;;;4974727;28;20568;-72
2021/12/23 04:24:37;;;;;;;23.38;16.73;;;2.30;99.90;;;;;;4973778;28;20168;-73
2021/12/23 04:27:04;;;;;;;20.50;16.03;;;2.30;99.90;;;;;;4974599;28;20612;-71
2021/12/23 04:29:29;;;;;;;18.92;15.05;;;2.30;99.90;;;;;;4989792;28;20587;-72
2021/12/23 04:31:55;;;;;;;20.63;15.97;;;2.20;99.90;;;;;;4974509;28;20282;-72
2021/12/23 04:34:21;;;;;;;19.67;14.80;;;2.20;99.90;;;;;;4957426;28;20795;-72
2021/12/23 04:36:46;;;;;;;24.07;17.43;;;2.20;99.90;;;;;;4989708;28;20188;-72
2021/12/23 04:39:13;;;;;;;19.33;16.87;;;2.20;99.90;;;;;;4973206;28;20186;-72
2021/12/23 04:41:38;;;;;;;24.23;17.67;;;2.20;99.90;;;;;;4973507;28;20234;-72
2021/12/23 04:44:05;;;;;;;19.93;15.50;;;2.20;99.90;;;;;;4973220;28;20186;-72
2021/12/23 04:46:31;;;;;;;23.42;16.30;;;2.20;99.90;;;;;;4974478;28;20563;-72
2021/12/23 04:48:57;;;;;;;19.10;16.00;;;2.20;99.90;;;;;;4974265;28;20647;-73
2021/12/23 04:51:23;;;;;;;20.57;15.37;;;2.20;99.90;;;;;;4973224;28;20247;-72
2021/12/23 04:53:48;;;;;;;21.23;17.77;;;2.20;99.90;;;;;;4974388;28;20568;-72
2021/12/23 04:56:15;;;;;;;25.00;18.60;;;2.20;99.90;;;;;;4972888;28;20923;-72
2021/12/23 04:58:42;;;;;;;21.35;18.40;;;2.10;99.90;;;;;;4974276;28;20654;-72
2021/12/23 05:01:16;;;;;;;19.33;16.50;;;2.10;99.90;;;;;;4973906;28;20238;-72
2021/12/23 05:03:42;;;;;;;21.75;17.27;;;2.10;99.90;;;;;;4956817;28;20670;-73
2021/12/23 05:06:08;;;;;;;20.20;17.07;;;2.10;99.90;;;;;;4988760;28;20175;-72
2021/12/23 05:08:33;;;;;;;21.93;15.80;;;2.10;99.90;;;;;;4974151;28;20168;-73
2021/12/23 05:10:59;;;;;;;25.20;18.13;;;2.10;99.90;;;;;;4972807;28;20606;-73
2021/12/23 05:13:24;;;;;;;19.17;16.37;;;2.10;99.90;;;;;;4973811;28;20176;-72
2021/12/23 05:15:50;;;;;;;21.10;16.50;;;2.10;99.90;;;;;;4956693;28;20270;-72
2021/12/23 05:18:16;;;;;;;20.10;15.33;;;2.10;99.90;;;;;;4972606;28;20291;-73
2021/12/23 05:20:42;;;;;;;23.57;17.87;;;2.10;99.90;;;;;;4973710;28;20207;-72
2021/12/23 05:23:07;;;;;;;25.63;20.00;;;2.10;99.90;;;;;;4973726;28;20175;-72
2021/12/23 05:25:33;;;;;;;25.50;18.90;;;2.00;99.90;;;;;;4973818;28;20242;-72
2021/12/23 05:28:01;;;;;;;19.17;14.97;;;2.00;99.90;;;;;;4972538;28;20290;-72
2021/12/23 05:30:27;;;;;;;18.13;14.77;;;2.00;99.90;;;;;;4988425;28;20948;-72
2021/12/23 05:32:54;;;;;;;21.95;16.85;;;2.00;99.90;;;;;;4972592;28;20521;-72
2021/12/23 05:35:20;;;;;;;24.27;17.13;;;2.00;99.90;;;;;;4973438;28;20250;-72
2021/12/23 05:37:46;;;;;;;17.25;13.32;;;2.00;99.90;;;;;;4973734;28;20258;-72
2021/12/23 05:40:15;;;;;;;16.25;12.55;;;2.00;99.90;;;;;;4971952;28;20273;-72
2021/12/23 05:42:41;;;;;;;22.08;16.05;;;2.00;99.90;;;;;;4973556;28;20168;-72
2021/12/23 05:45:08;;;;;;;21.70;16.40;;;2.00;99.90;;;;;;4973477;28;20163;-72
2021/12/23 05:47:33;;;;;;;24.00;16.30;;;2.00;99.90;;;;;;4973281;28;20183;-72
2021/12/23 05:49:59;;;;;;;18.57;14.43;;;1.90;99.90;;;;;;4973315;28;20172;-72
2021/12/23 05:52:25;;;;;;;22.07;17.50;;;2.00;99.90;;;;;;4955635;28;20591;-72
2021/12/23 05:54:51;;;;;;;22.13;18.30;;;2.00;99.90;;;;;;4973096;28;20667;-71
2021/12/23 05:57:17;;;;;;;25.53;17.03;;;1.90;99.90;;;;;;4973035;28;20255;-72
2021/12/23 05:59:43;;;;;;;20.83;17.57;;;2.00;99.90;;;;;;4972074;28;20610;-72
2021/12/23 06:02:09;;;;;;;21.37;16.77;;;2.00;99.90;;;;;;4973114;28;20726;-72
2021/12/23 06:04:35;;;;;;;23.45;17.90;;;2.00;99.90;;;;;;4971712;28;20602;-72
2021/12/23 06:07:02;;;;;;;17.85;14.88;;;2.00;99.90;;;;;;4973160;28;20179;-72
2021/12/23 06:09:28;;;;;;;20.50;15.23;;;2.10;99.90;;;;;;4972474;28;20163;-72
2021/12/23 06:11:54;;;;;;;21.20;16.88;;;2.10;99.90;;;;;;4972994;28;20576;-72
2021/12/23 06:14:21;;;;;;;20.93;16.20;;;2.10;99.90;;;;;;4955634;28;20160;-72
2021/12/23 06:16:47;;;;;;;24.92;16.63;;;2.10;99.90;;;;;;4973048;28;20218;-72
2021/12/23 06:19:13;;;;;;;19.33;16.00;;;2.10;99.90;;;;;;4972942;28;20167;-72
2021/12/23 06:21:39;;;;;;;23.33;18.95;;;2.20;99.90;;;;;;4972672;28;20200;-72
2021/12/23 06:24:05;;;;;;;21.80;16.70;;;2.20;99.90;;;;;;4972831;28;20190;-73
2021/12/23 06:26:31;;;;;;;19.50;15.00;;;2.20;99.90;;;;;;4972764;28;20167;-72
2021/12/23 06:28:58;;;;;;;22.58;17.50;;;2.30;99.90;;;;;;4972931;28;20234;-71
2021/12/23 06:31:24;;;;;;;23.90;17.40;;;2.30;99.90;;;;;;4972618;28;20191;-72
2021/12/23 06:33:49;;;;;;;17.70;14.53;;;2.40;99.90;;;;;;4971642;28;20724;-72
2021/12/23 06:36:15;;;;;;;28.47;19.57;;;2.30;99.90;;;;;;4971589;28;20172;-71
2021/12/23 06:38:42;;;;;;;24.73;17.15;;;2.30;99.90;;;;;;4971272;28;20176;-72
2021/12/23 06:41:08;;;;;;;21.38;16.50;;;2.30;99.90;;;;;;4972567;28;20254;-71
2021/12/23 06:43:34;;;;;;;22.45;18.75;;;2.30;99.90;;;;;;4972528;28;20640;-71
2021/12/23 06:46:00;;;;;;;23.07;18.37;;;2.30;99.90;;;;;;4972671;28;20164;-72
2021/12/23 06:48:26;;;;;;;27.35;19.65;;;2.30;99.90;;;;;;4972447;28;20171;-72
2021/12/23 06:50:54;;;;;;;29.27;17.60;;;2.30;99.90;;;;;;4972627;28;20227;-71
2021/12/23 06:53:20;;;;;;;22.52;16.90;;;2.40;99.90;;;;;;4971203;28;20182;-72
2021/12/23 06:55:46;;;;;;;20.25;15.90;;;2.30;99.90;;;;;;4972601;28;20210;-71
2021/12/23 06:58:12;;;;;;;27.10;18.73;;;2.40;99.90;;;;;;4972589;28;20199;-71
2021/12/23 07:00:38;;;;;;;21.50;15.97;;;2.40;99.90;;;;;;4972177;28;20983;-71
2021/12/23 07:03:04;;;;;;;17.27;14.07;;;2.40;99.90;;;;;;4971472;28;20610;-71
2021/12/23 07:05:29;;;;;;;18.33;14.80;;;2.40;99.90;;;;;;4973178;28;20210;-72
2021/12/23 07:08:08;;;;;;;26.93;19.77;;;2.40;99.90;;;;;;4975756;28;20663;-71
2021/12/23 07:10:34;;;;;;;24.45;19.20;;;2.40;99.90;;;;;;4974692;28;20238;-71
2021/12/23 07:13:00;;;;;;;22.40;15.90;;;2.40;99.90;;;;;;4974752;28;20644;-72
2021/12/23 07:15:27;;;;;;;22.75;17.15;;;2.40;99.90;;;;;;4974667;28;20168;-77
2021/12/23 07:17:55;;;;;;;29.35;19.60;;;2.40;99.90;;;;;;4974400;28;20199;-78
2021/12/23 07:20:23;;;;;;;27.13;20.05;;;2.40;99.90;;;;;;4974051;28;20234;-77
2021/12/23 07:22:49;;;;;;;24.67;17.17;;;2.50;99.90;;;;;;4958105;28;20168;-78
2021/12/23 07:25:15;;;;;;;21.90;17.10;;;2.50;99.90;;;;;;4974840;28;20185;-78
2021/12/23 07:27:42;;;;;;;21.45;15.25;;;2.50;99.90;;;;;;4974124;28;20262;-77
2021/12/23 07:30:10;;;;;;;23.92;17.30;;;2.50;99.90;;;;;;4974125;28;20564;-78
2021/12/23 07:32:36;;;;;;;21.77;16.30;;;2.60;99.90;;;;;;4975026;28;20163;-78
2021/12/23 07:35:02;;;;;;;23.33;17.80;;;2.60;99.90;;;;;;4975596;28;20218;-78
2021/12/23 07:37:28;;;;;;;21.80;15.68;;;2.60;99.90;;;;;;4973667;28;20184;-78
2021/12/23 07:39:55;;;;;;;19.80;14.70;;;2.60;99.90;;;;;;4989749;28;20312;-78
2021/12/23 07:42:22;;;;;;;25.48;19.08;;;2.70;99.90;;;;;;4975574;28;20579;-78
2021/12/23 07:44:48;;;;;;;25.13;17.50;;;2.70;99.90;;;;;;4974771;28;20176;-78
2021/12/23 07:47:14;;;;;;;20.07;17.23;;;2.70;99.90;;;;;;4982795;28;20178;-78
2021/12/23 07:49:41;;;;;;;21.10;18.23;;;2.70;99.90;;;;;;4978586;28;20259;-78
2021/12/23 07:52:08;;;;;;;20.17;15.02;;;2.70;99.90;;;;;;4974638;28;20199;-78
2021/12/23 07:54:34;;;;;;;20.70;14.18;;;2.70;99.90;;;;;;4972123;28;20760;-77
2021/12/23 07:57:01;;;;;;;17.25;14.00;;;2.80;99.90;;;;;;4974195;28;20222;-78
2021/12/23 07:59:28;;;;;;;19.20;16.05;;;2.90;99.90;;;;;;4972811;28;20287;-78
2021/12/23 08:02:00;;;;;;;22.60;17.13;;;2.80;99.90;;;;;;4976046;28;20195;-77
2021/12/23 08:04:26;;;;;;;18.15;13.77;;;2.90;99.90;;;;;;4974301;28;20168;-77
2021/12/23 08:06:55;;;;;;;20.53;15.70;;;2.90;99.90;;;;;;4972545;28;20223;-77
2021/12/23 08:09:22;;;;;;;29.13;20.20;;;2.90;99.90;;;;;;4989381;28;20578;-77
2021/12/23 08:11:49;;;;;;;28.60;21.35;;;3.00;99.90;;;;;;4988566;28;20246;-77
2021/12/23 08:14:15;;;;;;;24.58;18.45;;;2.90;99.90;;;;;;4972437;28;20176;-77
2021/12/23 08:16:42;;;;;;;20.50;14.63;;;2.90;99.90;;;;;;4974762;28;20521;-77
2021/12/23 08:19:09;;;;;;;28.33;18.45;;;2.90;99.90;;;;;;4973974;28;20172;-77
2021/12/23 08:21:34;;;;;;;20.48;14.45;;;3.00;99.90;;;;;;4972743;28;20675;-76
2021/12/23 08:24:01;;;;;;;21.90;17.70;;;3.10;99.90;;;;;;4978382;28;20175;-77
2021/12/23 08:26:29;;;;;;;23.50;18.37;;;3.10;99.90;;;;;;4973721;28;20164;-77
2021/12/23 08:28:57;;;;;;;23.10;18.58;;;3.00;99.90;;;;;;4973908;28;20602;-76
2021/12/23 08:31:23;;;;;;;21.38;16.60;;;3.00;99.90;;;;;;4972954;28;20192;-77
2021/12/23 08:33:50;;;;;;;25.30;17.88;;;3.00;99.90;;;;;;4956092;28;20172;-76
2021/12/23 08:36:16;;;;;;;26.00;18.83;;;3.10;99.90;;;;;;4956236;28;20576;-76
2021/12/23 08:38:43;;;;;;;24.33;17.83;;;3.10;99.90;;;;;;4974215;28;20179;-76
2021/12/23 08:41:09;;;;;;;19.33;14.45;;;3.20;99.90;;;;;;4940160;28;20212;-76
2021/12/23 08:43:36;;;;;;;25.35;19.95;;;3.20;99.90;;;;;;4973680;28;20168;-77
2021/12/23 08:46:02;;;;;;;23.25;16.90;;;3.20;99.90;;;;;;4971692;28;20178;-76
2021/12/23 08:48:28;;;;;;;20.38;16.02;;;3.20;99.90;;;;;;4956595;28;20596;-76
2021/12/23 08:50:54;;;;;;;21.57;16.87;;;3.30;99.90;;;;;;4973361;28;20218;-76
2021/12/23 08:53:19;;;;;;;23.67;17.40;;;3.30;99.90;;;;;;4972260;28;20179;-76
2021/12/23 08:55:45;;;;;;;26.53;19.07;;;3.40;99.90;;;;;;4987395;28;20597;-76
2021/12/23 08:58:11;;;;;;;22.53;18.73;;;3.30;99.90;;;;;;4956469;28;20915;-76
2021/12/23 09:00:40;;;;;;;27.67;18.75;;;3.30;99.90;;;;;;4993536;28;20654;-76
2021/12/23 09:03:07;;;;;;;22.27;17.77;;;3.30;99.90;;;;;;4973333;28;20624;-75
2021/12/23 09:05:35;;;;;;;26.60;18.85;;;3.30;99.90;;;;;;4972679;28;20175;-75
2021/12/23 09:08:02;;;;;;;23.25;16.85;;;3.30;99.90;;;;;;4971574;28;20175;-75
2021/12/23 09:10:28;;;;;;;24.08;17.33;;;3.40;99.90;;;;;;4970005;28;20196;-75
2021/12/23 09:12:54;;;;;;;27.00;18.75;;;3.40;99.90;;;;;;4972685;28;20203;-75
2021/12/23 09:15:21;;;;;;;22.87;17.13;;;3.50;99.90;;;;;;4987326;28;20203;-77
2021/12/23 09:17:47;;;;;;;23.95;18.63;;;3.40;99.90;;;;;;4972938;28;20168;-76
2021/12/23 09:20:15;;;;;;;24.67;17.98;;;3.50;99.90;;;;;;4971272;28;20322;-76
2021/12/23 09:22:42;;;;;;;24.05;17.38;;;3.60;99.90;;;;;;4964961;28;20599;-77
2021/12/23 09:25:18;;;;;;;20.88;14.77;;;3.60;99.90;;;;;;4972294;28;20176;-77
2021/12/23 09:33:04;;;;;;;23.90;17.60;;;3.90;99.90;;;;;;4973239;28;20202;-72
2021/12/23 09:35:32;;;;;;;23.40;17.45;;;3.90;99.90;;;;;;4972625;28;20270;-70
2021/12/23 09:37:59;;;;;;;20.48;15.35;;;4.00;99.90;;;;;;4992739;28;20183;-71
2021/12/23 09:40:29;;;;;;;23.45;16.00;;;4.00;99.90;;;;;;4972170;28;20724;-72
2021/12/23 09:42:58;;;;;;;24.70;16.10;;;4.10;99.90;;;;;;4970425;28;20706;-72
2021/12/23 09:45:24;;;;;;;25.85;19.13;;;4.20;99.90;;;;;;4971414;28;20168;-72
2021/12/23 09:47:50;;;;;;;25.87;18.30;;;4.20;99.90;;;;;;4972498;28;20628;-72
2021/12/23 09:50:20;;;;;;;26.13;19.93;;;4.30;99.90;;;;;;4971362;28;20698;-71
2021/12/23 09:52:50;;;;;;;22.40;16.00;;;4.30;99.90;;;;;;4971005;28;20563;-72
2021/12/23 09:55:19;;;;;;;23.38;18.15;;;4.40;99.90;;;;;;4973047;28;20183;-72
2021/12/23 09:57:48;;;;;;;18.20;15.63;;;4.40;99.90;;;;;;4955272;28;20199;-72
2021/12/23 10:00:17;;;;;;;21.52;18.67;;;4.40;99.90;;;;;;4972785;28;20271;-72
2021/12/23 10:02:43;;;;;;;23.10;17.73;;;4.40;99.90;;;;;;4971304;28;20168;-71
2021/12/23 10:05:16;;;;;;;20.75;16.80;;;4.50;99.90;;;;;;4972727;28;20190;-71
2021/12/23 10:07:45;;;;;;;23.25;18.20;;;4.50;99.90;;;;;;4972080;28;20606;-73
2021/12/23 10:10:18;;;;;;;22.40;16.70;;;4.60;99.90;;;;;;4970720;28;20274;-71
2021/12/23 10:39:21;;;;;;;17.98;12.60;;;5.30;99.90;;;;;;4950991;28;20203;-71
2021/12/23 10:41:46;;;;;;;16.25;13.00;;;5.40;99.90;;;;;;4967264;28;20634;-71
2021/12/23 10:44:12;;;;;;;19.53;15.90;;;5.50;99.90;;;;;;4958932;28;20263;-72
2021/12/23 10:46:40;;;;;;;19.80;15.60;;;5.60;99.90;;;;;;4976106;28;20723;-73
2021/12/23 10:49:32;;;;;;;25.50;19.63;;;5.60;99.90;;;;;;4975991;28;20179;-72
2021/12/23 10:52:14;;;;;;;20.17;16.35;;;5.60;99.90;;;;;;4975802;28;20213;-72
2021/12/23 11:01:37;;;;;;;20.25;15.77;;;5.60;99.90;;;;;;4937066;28;20314;-76
2021/12/23 11:04:06;;;;;;;23.15;16.73;;;5.80;99.90;;;;;;4975152;28;20168;-76
2021/12/23 11:06:38;;;;;;;21.50;15.65;;;5.70;99.90;;;;;;4975182;28;20194;-76
2021/12/23 11:42:10;;;;;;;18.05;14.52;;;6.20;99.90;;;;;;4974924;28;20286;-77
2021/12/23 11:44:34;;;;;;;18.65;13.82;;;6.20;99.90;;;;;;4974739;28;20210;-78
2021/12/23 11:47:07;;;;;;;17.45;15.25;;;6.30;99.90;;;;;;4989282;28;20183;-76
2021/12/23 11:49:35;;;;;;;23.05;17.10;;;6.40;99.90;;;;;;4972088;28;20176;-76
2021/12/23 11:52:02;;;;;;;20.27;15.10;;;6.40;99.90;;;;;;4973964;28;20195;-77
2021/12/23 11:54:37;;;;;;;21.10;16.00;;;6.40;99.90;;;;;;4974492;28;20179;-77
2021/12/23 11:57:26;;;;;;;27.63;18.20;;;6.40;99.90;;;;;;4974423;28;20187;-77
2021/12/23 12:00:07;;;;;;;21.02;16.13;;;6.40;99.90;;;;;;4989324;28;20294;-77
2021/12/23 12:02:33;;;;;;;18.98;14.85;;;6.40;99.90;;;;;;4975312;28;20246;-77
2021/12/23 12:05:04;;;;;;;20.03;15.70;;;6.40;99.90;;;;;;4974718;28;20632;-77
2021/12/23 12:07:29;;;;;;;16.98;14.27;;;6.40;99.90;;;;;;4972983;28;20875;-77
2021/12/23 12:10:05;;;;;;;19.03;14.83;;;6.50;99.90;;;;;;4974486;28;20170;-77
2021/12/23 12:12:32;;;;;;;21.23;16.00;;;6.50;99.90;;;;;;4989642;28;20539;-74
2021/12/23 12:15:00;;;;;;;20.77;15.02;;;6.50;99.90;;;;;;4977550;28;20180;-74
2021/12/23 12:17:26;;;;;;;20.38;16.25;;;6.50;99.90;;;;;;4980035;28;20203;-74
2021/12/23 12:20:14;;;;;;;21.20;16.77;;;6.60;99.90;;;;;;4978677;28;20195;-74
2021/12/23 12:22:55;;;;;;;18.92;14.90;;;6.60;99.90;;;;;;4979396;28;20186;-75
2021/12/23 12:25:26;;;;;;;23.60;19.10;;;6.70;99.90;;;;;;4981672;28;20198;-74
2021/12/23 12:27:55;;;;;;;20.73;15.55;;;6.60;99.90;;;;;;4980213;28;20262;-75
2021/12/23 12:30:34;;;;;;;22.13;17.33;;;6.60;99.90;;;;;;4974876;28;20191;-75
2021/12/23 12:33:13;;;;;;;30.27;19.65;;;6.60;99.90;;;;;;4974877;28;20553;-75
2021/12/23 12:35:41;;;;;;;31.45;19.33;;;6.60;99.90;;;;;;4974187;28;20180;-75
2021/12/23 12:38:28;;;;;;;25.52;17.20;;;6.60;99.90;;;;;;4977520;28;20182;-74
2021/12/23 12:40:59;;;;;;;25.80;17.30;;;6.70;99.90;;;;;;4978681;28;20207;-77
2021/12/23 12:43:51;;;;;;;23.23;17.30;;;6.70;99.90;;;;;;4980015;28;20175;-77
2021/12/23 12:46:36;;;;;;;19.95;15.00;;;6.70;99.90;;;;;;4982082;28;20172;-78
2021/12/23 12:49:10;;;;;;;21.35;17.00;;;6.80;99.90;;;;;;4962738;28;20585;-74
2021/12/23 12:51:38;;;;;;;23.40;18.65;;;6.80;99.90;;;;;;4974012;28;20206;-75
2021/12/23 12:54:07;;;;;;;20.50;16.58;;;6.80;99.90;;;;;;4974302;28;20183;-75
2021/12/23 12:56:36;;;;;;;29.08;19.73;;;6.80;99.90;;;;;;4972489;28;20180;-77
2021/12/23 12:59:07;;;;;;;23.13;17.23;;;6.70;99.90;;;;;;4973768;28;20580;-75
2021/12/23 13:01:38;;;;;;;24.48;18.50;;;6.80;99.90;;;;;;4973664;28;20291;-75
2021/12/23 13:04:06;;;;;;;22.17;18.35;;;6.80;99.90;;;;;;4972673;28;20199;-75
2021/12/23 13:06:39;;;;;;;24.13;16.70;;;6.80;99.90;;;;;;4970694;28;20518;-76
2021/12/23 13:09:31;;;;;;;21.95;16.85;;;6.80;99.90;;;;;;4945130;28;20223;-76
2021/12/23 13:12:31;;;;;;;19.17;16.17;;;6.90;99.90;;;;;;4972947;28;20279;-76
2021/12/23 13:15:23;;;;;;;23.60;18.38;;;7.00;99.90;;;;;;4973171;28;20198;-76
2021/12/23 13:18:21;;;;;;;22.77;16.17;;;7.10;99.90;;;;;;4959481;28;20175;-76
2021/12/23 13:20:55;;;;;;;25.35;17.23;;;7.20;99.90;;;;;;4979970;28;20258;-74
2021/12/23 13:23:34;;;;;;;21.85;16.58;;;7.20;99.90;;;;;;4940751;28;20191;-76
2021/12/23 13:26:28;;;;;;;20.30;14.75;;;7.20;99.90;;;;;;4971059;28;20164;-76
2021/12/23 13:28:57;;;;;;;20.52;15.95;;;7.30;99.90;;;;;;4952413;28;20547;-76
2021/12/23 13:31:33;;;;;;;20.73;16.95;;;7.30;99.90;;;;;;4972394;28;20247;-75
2021/12/23 13:34:07;;;;;;;19.88;16.95;;;7.30;99.90;;;;;;4970848;28;20175;-75
2021/12/23 13:36:47;;;;;;;28.05;16.40;;;7.40;99.90;;;;;;4971878;28;20186;-76
2021/12/23 13:39:19;;;;;;;20.50;15.10;;;7.40;99.90;;;;;;4971697;28;20179;-76
2021/12/23 13:41:57;;;;;;;25.05;17.50;;;7.40;99.90;;;;;;4971648;28;20301;-76
2021/12/23 13:44:24;;;;;;;20.88;15.00;;;7.40;99.90;;;;;;4986391;28;20167;-76
2021/12/23 13:47:07;;;;;;;18.02;14.63;;;7.40;99.90;;;;;;4964685;28;20191;-76
2021/12/23 13:49:46;;;;;;;22.75;16.85;;;7.40;99.90;;;;;;4972274;28;20187;-76
2021/12/23 13:52:39;;;;;;;22.00;16.60;;;7.50;99.90;;;;;;4969555;28;20203;-76
2021/12/23 13:55:12;;;;;;;23.58;15.73;;;7.50;99.90;;;;;;4971111;28;20184;-76
2021/12/23 13:57:51;;;;;;;18.75;13.00;;;7.50;99.90;;;;;;4956025;29;20179;-76
2021/12/23 14:00:30;;;;;;;16.52;13.10;;;7.50;99.90;;;;;;4951881;29;20208;-76